sensor_id;sensor_type;location;lat;lon;timestamp;temperature;humidity
78733;DHT22;68056;52.530;5.454;2023-06-14T00:02:06;19.20;52.80
78733;DHT22;68056;52.530;5.454;2023-06-14T00:04:34;19.20;52.80
78733;DHT22;68056;52.530;5.454;2023-06-14T00:07:00;19.20;52.70
78733;DHT22;68056;52.530;5.454;2023-06-14T00:09:25;19.10;52.60
78733;DHT22;68056;52.530;5.454;2023-06-14T00:11:51;19.10;52.50
78733;DHT22;68056;52.530;5.454;2023-06-14T00:14:16;19.10;52.50
78733;DHT22;68056;52.530;5.454;2023-06-14T00:16:42;19.10;52.40
78733;DHT22;68056;52.530;5.454;2023-06-14T00:19:11;19.10;52.30
78733;DHT22;68056;52.530;5.454;2023-06-14T00:21:37;19.10;52.20
78733;DHT22;68056;52.530;5.454;2023-06-14T00:24:04;19.10;52.20
78733;DHT22;68056;52.530;5.454;2023-06-14T00:26:30;19.00;52.20
78733;DHT22;68056;52.530;5.454;2023-06-14T00:28:55;19.00;52.20
78733;DHT22;68056;52.530;5.454;2023-06-14T00:31:22;19.00;52.10
78733;DHT22;68056;52.530;5.454;2023-06-14T00:33:48;18.90;52.10
78733;DHT22;68056;52.530;5.454;2023-06-14T00:36:14;18.90;52.10
78733;DHT22;68056;52.530;5.454;2023-06-14T00:38:39;18.90;52.00
78733;DHT22;68056;52.530;5.454;2023-06-14T00:41:05;18.90;52.00
78733;DHT22;68056;52.530;5.454;2023-06-14T00:43:30;18.90;51.90
78733;DHT22;68056;52.530;5.454;2023-06-14T00:45:56;18.80;52.00
78733;DHT22;68056;52.530;5.454;2023-06-14T00:48:22;18.80;51.90
78733;DHT22;68056;52.530;5.454;2023-06-14T00:50:49;18.80;51.90
78733;DHT22;68056;52.530;5.454;2023-06-14T00:53:16;18.80;51.90
78733;DHT22;68056;52.530;5.454;2023-06-14T00:55:43;18.70;51.90
78733;DHT22;68056;52.530;5.454;2023-06-14T00:58:09;18.70;51.80
78733;DHT22;68056;52.530;5.454;2023-06-14T01:00:35;18.70;51.80
78733;DHT22;68056;52.530;5.454;2023-06-14T01:03:01;18.60;51.80
78733;DHT22;68056;52.530;5.454;2023-06-14T01:05:28;18.60;51.90
78733;DHT22;68056;52.530;5.454;2023-06-14T01:13:23;18.50;51.80
78733;DHT22;68056;52.530;5.454;2023-06-14T01:15:52;18.40;51.90
78733;DHT22;68056;52.530;5.454;2023-06-14T01:18:19;18.40;51.90
78733;DHT22;68056;52.530;5.454;2023-06-14T01:20:47;18.30;51.80
78733;DHT22;68056;52.530;5.454;2023-06-14T01:23:18;18.30;51.90
78733;DHT22;68056;52.530;5.454;2023-06-14T01:25:44;18.30;51.90
78733;DHT22;68056;52.530;5.454;2023-06-14T01:28:11;18.20;52.00
78733;DHT22;68056;52.530;5.454;2023-06-14T01:30:39;18.20;52.00
78733;DHT22;68056;52.530;5.454;2023-06-14T01:33:16;18.20;52.20
78733;DHT22;68056;52.530;5.454;2023-06-14T01:35:45;18.10;52.10
78733;DHT22;68056;52.530;5.454;2023-06-14T01:38:10;18.10;52.20
78733;DHT22;68056;52.530;5.454;2023-06-14T01:40:37;18.00;52.20
78733;DHT22;68056;52.530;5.454;2023-06-14T01:43:05;18.00;52.20
78733;DHT22;68056;52.530;5.454;2023-06-14T01:45:31;18.00;52.30
78733;DHT22;68056;52.530;5.454;2023-06-14T01:47:58;18.00;52.30
78733;DHT22;68056;52.530;5.454;2023-06-14T01:50:23;17.90;52.40
78733;DHT22;68056;52.530;5.454;2023-06-14T01:52:53;17.90;52.50
78733;DHT22;68056;52.530;5.454;2023-06-14T01:55:18;17.80;52.50
78733;DHT22;68056;52.530;5.454;2023-06-14T01:57:44;17.80;52.50
78733;DHT22;68056;52.530;5.454;2023-06-14T02:00:10;17.80;52.60
78733;DHT22;68056;52.530;5.454;2023-06-14T02:02:38;17.80;52.80
78733;DHT22;68056;52.530;5.454;2023-06-14T02:05:04;17.70;52.90
78733;DHT22;68056;52.530;5.454;2023-06-14T02:07:29;17.60;53.00
78733;DHT22;68056;52.530;5.454;2023-06-14T02:09:55;17.60;53.10
78733;DHT22;68056;52.530;5.454;2023-06-14T02:12:21;17.60;53.20
78733;DHT22;68056;52.530;5.454;2023-06-14T02:14:52;17.50;53.30
78733;DHT22;68056;52.530;5.454;2023-06-14T02:17:25;17.50;53.50
78733;DHT22;68056;52.530;5.454;2023-06-14T02:19:51;17.50;53.50
78733;DHT22;68056;52.530;5.454;2023-06-14T02:22:17;17.40;53.60
78733;DHT22;68056;52.530;5.454;2023-06-14T02:24:43;17.40;53.70
78733;DHT22;68056;52.530;5.454;2023-06-14T02:27:09;17.30;53.80
78733;DHT22;68056;52.530;5.454;2023-06-14T02:29:37;17.20;54.00
78733;DHT22;68056;52.530;5.454;2023-06-14T02:32:06;17.20;54.00
78733;DHT22;68056;52.530;5.454;2023-06-14T02:34:33;17.20;54.10
78733;DHT22;68056;52.530;5.454;2023-06-14T02:36:59;17.20;54.20
78733;DHT22;68056;52.530;5.454;2023-06-14T02:39:25;17.10;54.40
78733;DHT22;68056;52.530;5.454;2023-06-14T02:41:50;17.00;54.50
78733;DHT22;68056;52.530;5.454;2023-06-14T02:44:18;17.00;54.60
78733;DHT22;68056;52.530;5.454;2023-06-14T02:46:44;17.00;54.70
78733;DHT22;68056;52.530;5.454;2023-06-14T02:49:13;16.90;54.70
78733;DHT22;68056;52.530;5.454;2023-06-14T02:51:38;16.90;54.80
78733;DHT22;68056;52.530;5.454;2023-06-14T02:54:04;16.80;55.00
78733;DHT22;68056;52.530;5.454;2023-06-14T02:56:29;16.80;55.10
78733;DHT22;68056;52.530;5.454;2023-06-14T02:58:55;16.70;55.10
78733;DHT22;68056;52.530;5.454;2023-06-14T03:01:21;16.70;55.10
78733;DHT22;68056;52.530;5.454;2023-06-14T03:03:47;16.70;55.20
78733;DHT22;68056;52.530;5.454;2023-06-14T03:06:12;16.60;55.20
78733;DHT22;68056;52.530;5.454;2023-06-14T03:08:40;16.60;55.30
78733;DHT22;68056;52.530;5.454;2023-06-14T03:11:07;16.60;55.40
78733;DHT22;68056;52.530;5.454;2023-06-14T03:13:36;16.50;55.50
78733;DHT22;68056;52.530;5.454;2023-06-14T03:16:02;16.50;55.50
78733;DHT22;68056;52.530;5.454;2023-06-14T03:18:29;16.40;55.70
78733;DHT22;68056;52.530;5.454;2023-06-14T03:20:56;16.40;55.80
78733;DHT22;68056;52.530;5.454;2023-06-14T03:23:24;16.30;55.80
78733;DHT22;68056;52.530;5.454;2023-06-14T03:25:49;16.30;55.80
78733;DHT22;68056;52.530;5.454;2023-06-14T03:28:15;16.30;55.70
78733;DHT22;68056;52.530;5.454;2023-06-14T03:30:42;16.30;55.90
78733;DHT22;68056;52.530;5.454;2023-06-14T03:33:07;16.30;55.80
78733;DHT22;68056;52.530;5.454;2023-06-14T03:35:34;16.20;56.00
78733;DHT22;68056;52.530;5.454;2023-06-14T03:38:07;16.20;56.00
78733;DHT22;68056;52.530;5.454;2023-06-14T03:40:32;16.20;56.10
78733;DHT22;68056;52.530;5.454;2023-06-14T03:42:58;16.20;56.10
78733;DHT22;68056;52.530;5.454;2023-06-14T03:45:23;16.20;56.20
78733;DHT22;68056;52.530;5.454;2023-06-14T03:47:52;16.10;56.20
78733;DHT22;68056;52.530;5.454;2023-06-14T03:50:18;16.10;56.20
78733;DHT22;68056;52.530;5.454;2023-06-14T03:52:44;16.10;56.20
78733;DHT22;68056;52.530;5.454;2023-06-14T03:55:10;16.10;56.30
78733;DHT22;68056;52.530;5.454;2023-06-14T03:57:38;16.10;56.40
78733;DHT22;68056;52.530;5.454;2023-06-14T04:00:04;16.10;56.40
78733;DHT22;68056;52.530;5.454;2023-06-14T04:02:31;16.10;56.40
78733;DHT22;68056;52.530;5.454;2023-06-14T04:04:56;16.10;56.40
78733;DHT22;68056;52.530;5.454;2023-06-14T04:07:22;16.00;56.40
78733;DHT22;68056;52.530;5.454;2023-06-14T04:09:48;16.10;56.30
78733;DHT22;68056;52.530;5.454;2023-06-14T04:12:14;16.10;56.40
78733;DHT22;68056;52.530;5.454;2023-06-14T04:14:40;16.10;56.40
78733;DHT22;68056;52.530;5.454;2023-06-14T04:17:06;16.10;56.40
78733;DHT22;68056;52.530;5.454;2023-06-14T04:19:32;16.10;56.40
78733;DHT22;68056;52.530;5.454;2023-06-14T04:21:58;16.10;56.50
78733;DHT22;68056;52.530;5.454;2023-06-14T04:24:26;16.10;56.40
78733;DHT22;68056;52.530;5.454;2023-06-14T04:27:00;16.10;56.50
78733;DHT22;68056;52.530;5.454;2023-06-14T04:29:26;16.10;56.40
78733;DHT22;68056;52.530;5.454;2023-06-14T04:31:55;16.20;56.40
78733;DHT22;68056;52.530;5.454;2023-06-14T04:34:27;16.20;56.40
78733;DHT22;68056;52.530;5.454;2023-06-14T04:36:59;16.20;56.40
78733;DHT22;68056;52.530;5.454;2023-06-14T04:39:26;16.20;56.40
78733;DHT22;68056;52.530;5.454;2023-06-14T04:41:53;16.30;56.40
78733;DHT22;68056;52.530;5.454;2023-06-14T04:44:25;16.30;56.30
78733;DHT22;68056;52.530;5.454;2023-06-14T04:46:56;16.30;56.30
78733;DHT22;68056;52.530;5.454;2023-06-14T04:49:22;16.40;56.30
78733;DHT22;68056;52.530;5.454;2023-06-14T04:51:48;16.40;56.40
78733;DHT22;68056;52.530;5.454;2023-06-14T04:54:22;16.40;56.30
78733;DHT22;68056;52.530;5.454;2023-06-14T04:56:50;16.40;56.30
78733;DHT22;68056;52.530;5.454;2023-06-14T04:59:15;16.40;56.30
78733;DHT22;68056;52.530;5.454;2023-06-14T05:01:42;16.40;56.30
78733;DHT22;68056;52.530;5.454;2023-06-14T05:04:13;16.40;56.30
78733;DHT22;68056;52.530;5.454;2023-06-14T05:06:38;16.40;56.30
78733;DHT22;68056;52.530;5.454;2023-06-14T05:09:04;16.40;56.20
78733;DHT22;68056;52.530;5.454;2023-06-14T05:11:29;16.50;56.40
78733;DHT22;68056;52.530;5.454;2023-06-14T05:13:55;16.50;56.30
78733;DHT22;68056;52.530;5.454;2023-06-14T05:16:21;16.50;56.40
78733;DHT22;68056;52.530;5.454;2023-06-14T05:18:48;16.60;56.30
78733;DHT22;68056;52.530;5.454;2023-06-14T05:21:14;16.60;56.30
78733;DHT22;68056;52.530;5.454;2023-06-14T05:23:43;16.60;56.30
78733;DHT22;68056;52.530;5.454;2023-06-14T05:26:09;16.60;56.30
78733;DHT22;68056;52.530;5.454;2023-06-14T05:28:35;16.60;56.20
78733;DHT22;68056;52.530;5.454;2023-06-14T05:31:01;16.70;56.30
78733;DHT22;68056;52.530;5.454;2023-06-14T05:33:27;16.70;56.30
78733;DHT22;68056;52.530;5.454;2023-06-14T05:35:52;16.70;56.30
78733;DHT22;68056;52.530;5.454;2023-06-14T05:38:18;16.80;56.30
78733;DHT22;68056;52.530;5.454;2023-06-14T05:40:43;16.80;56.30
78733;DHT22;68056;52.530;5.454;2023-06-14T05:43:09;16.90;56.20
78733;DHT22;68056;52.530;5.454;2023-06-14T05:45:35;17.00;56.20
78733;DHT22;68056;52.530;5.454;2023-06-14T05:48:01;17.00;56.20
78733;DHT22;68056;52.530;5.454;2023-06-14T05:50:26;17.20;56.10
78733;DHT22;68056;52.530;5.454;2023-06-14T05:52:53;17.20;56.10
78733;DHT22;68056;52.530;5.454;2023-06-14T05:55:19;17.30;56.00
78733;DHT22;68056;52.530;5.454;2023-06-14T05:57:45;17.40;56.00
78733;DHT22;68056;52.530;5.454;2023-06-14T06:00:11;17.50;55.90
78733;DHT22;68056;52.530;5.454;2023-06-14T06:02:40;17.80;55.70
78733;DHT22;68056;52.530;5.454;2023-06-14T06:05:06;17.90;55.50
78733;DHT22;68056;52.530;5.454;2023-06-14T06:07:32;18.00;55.50
78733;DHT22;68056;52.530;5.454;2023-06-14T06:09:57;18.20;55.30
78733;DHT22;68056;52.530;5.454;2023-06-14T06:12:23;18.40;55.10
78733;DHT22;68056;52.530;5.454;2023-06-14T06:14:48;18.60;55.00
78733;DHT22;68056;52.530;5.454;2023-06-14T06:17:14;18.70;54.80
78733;DHT22;68056;52.530;5.454;2023-06-14T06:19:42;18.90;54.60
78733;DHT22;68056;52.530;5.454;2023-06-14T06:22:08;19.00;54.40
78733;DHT22;68056;52.530;5.454;2023-06-14T06:24:34;19.20;54.40
78733;DHT22;68056;52.530;5.454;2023-06-14T06:26:59;19.40;54.30
78733;DHT22;68056;52.530;5.454;2023-06-14T06:29:25;19.50;54.10
78733;DHT22;68056;52.530;5.454;2023-06-14T06:31:51;19.70;53.90
78733;DHT22;68056;52.530;5.454;2023-06-14T06:34:16;19.90;53.70
78733;DHT22;68056;52.530;5.454;2023-06-14T06:36:42;20.00;53.40
78733;DHT22;68056;52.530;5.454;2023-06-14T06:39:08;20.10;53.20
78733;DHT22;68056;52.530;5.454;2023-06-14T06:41:42;20.30;52.90
78733;DHT22;68056;52.530;5.454;2023-06-14T06:44:14;20.40;52.80
78733;DHT22;68056;52.530;5.454;2023-06-14T06:46:40;20.60;52.70
78733;DHT22;68056;52.530;5.454;2023-06-14T06:49:12;20.80;52.50
78733;DHT22;68056;52.530;5.454;2023-06-14T06:51:41;21.10;52.20
78733;DHT22;68056;52.530;5.454;2023-06-14T06:54:07;21.30;52.00
78733;DHT22;68056;52.530;5.454;2023-06-14T06:56:34;21.40;51.70
78733;DHT22;68056;52.530;5.454;2023-06-14T06:59:00;21.50;51.60
78733;DHT22;68056;52.530;5.454;2023-06-14T07:01:25;21.60;51.40
78733;DHT22;68056;52.530;5.454;2023-06-14T07:03:51;21.70;51.50
78733;DHT22;68056;52.530;5.454;2023-06-14T07:06:17;21.90;51.40
78733;DHT22;68056;52.530;5.454;2023-06-14T07:08:44;22.10;51.10
78733;DHT22;68056;52.530;5.454;2023-06-14T07:11:10;22.30;50.80
78733;DHT22;68056;52.530;5.454;2023-06-14T07:13:35;22.40;50.80
78733;DHT22;68056;52.530;5.454;2023-06-14T07:16:01;22.60;50.60
78733;DHT22;68056;52.530;5.454;2023-06-14T07:18:27;22.80;50.50
78733;DHT22;68056;52.530;5.454;2023-06-14T07:20:53;23.00;50.30
78733;DHT22;68056;52.530;5.454;2023-06-14T07:23:19;23.20;50.10
78733;DHT22;68056;52.530;5.454;2023-06-14T07:25:45;23.40;50.00
78733;DHT22;68056;52.530;5.454;2023-06-14T07:28:11;23.50;49.70
78733;DHT22;68056;52.530;5.454;2023-06-14T07:30:36;23.60;49.90
78733;DHT22;68056;52.530;5.454;2023-06-14T07:33:02;23.80;49.80
78733;DHT22;68056;52.530;5.454;2023-06-14T07:35:28;23.90;49.80
78733;DHT22;68056;52.530;5.454;2023-06-14T07:37:53;24.20;49.40
78733;DHT22;68056;52.530;5.454;2023-06-14T07:40:19;24.40;48.80
78733;DHT22;68056;52.530;5.454;2023-06-14T07:42:45;24.40;48.40
78733;DHT22;68056;52.530;5.454;2023-06-14T07:45:13;24.50;48.00
78733;DHT22;68056;52.530;5.454;2023-06-14T07:47:39;24.60;47.90
78733;DHT22;68056;52.530;5.454;2023-06-14T07:50:05;24.70;47.30
78733;DHT22;68056;52.530;5.454;2023-06-14T07:52:30;24.70;47.30
78733;DHT22;68056;52.530;5.454;2023-06-14T07:54:56;24.80;47.20
78733;DHT22;68056;52.530;5.454;2023-06-14T07:57:22;25.00;46.90
78733;DHT22;68056;52.530;5.454;2023-06-14T07:59:47;25.00;46.70
78733;DHT22;68056;52.530;5.454;2023-06-14T08:02:14;25.20;46.80
78733;DHT22;68056;52.530;5.454;2023-06-14T08:04:40;25.50;46.60
78733;DHT22;68056;52.530;5.454;2023-06-14T08:07:06;25.60;46.10
78733;DHT22;68056;52.530;5.454;2023-06-14T08:09:31;25.80;46.20
78733;DHT22;68056;52.530;5.454;2023-06-14T08:11:57;26.00;46.20
78733;DHT22;68056;52.530;5.454;2023-06-14T08:14:32;26.20;46.00
78733;DHT22;68056;52.530;5.454;2023-06-14T08:17:00;26.40;45.90
78733;DHT22;68056;52.530;5.454;2023-06-14T08:19:26;26.70;45.70
78733;DHT22;68056;52.530;5.454;2023-06-14T08:21:52;27.00;45.30
78733;DHT22;68056;52.530;5.454;2023-06-14T08:24:21;27.20;45.00
78733;DHT22;68056;52.530;5.454;2023-06-14T08:26:49;27.30;44.60
78733;DHT22;68056;52.530;5.454;2023-06-14T08:29:15;27.40;44.20
78733;DHT22;68056;52.530;5.454;2023-06-14T08:31:41;27.50;44.10
78733;DHT22;68056;52.530;5.454;2023-06-14T08:34:06;27.50;43.50
78733;DHT22;68056;52.530;5.454;2023-06-14T08:36:32;27.50;43.10
78733;DHT22;68056;52.530;5.454;2023-06-14T08:38:58;27.60;43.20
78733;DHT22;68056;52.530;5.454;2023-06-14T08:41:23;27.80;42.90
78733;DHT22;68056;52.530;5.454;2023-06-14T08:43:52;27.90;42.70
78733;DHT22;68056;52.530;5.454;2023-06-14T08:46:18;28.00;42.70
78733;DHT22;68056;52.530;5.454;2023-06-14T08:48:51;28.10;42.70
78733;DHT22;68056;52.530;5.454;2023-06-14T08:51:20;28.30;42.60
78733;DHT22;68056;52.530;5.454;2023-06-14T08:53:53;28.50;41.90
78733;DHT22;68056;52.530;5.454;2023-06-14T08:56:25;28.60;41.70
78733;DHT22;68056;52.530;5.454;2023-06-14T08:58:51;28.60;41.60
78733;DHT22;68056;52.530;5.454;2023-06-14T09:01:18;28.70;41.40
78733;DHT22;68056;52.530;5.454;2023-06-14T09:03:49;28.70;41.30
78733;DHT22;68056;52.530;5.454;2023-06-14T09:06:15;28.60;41.10
78733;DHT22;68056;52.530;5.454;2023-06-14T09:08:47;28.60;41.20
78733;DHT22;68056;52.530;5.454;2023-06-14T09:11:14;28.70;41.20
78733;DHT22;68056;52.530;5.454;2023-06-14T09:13:41;28.90;41.50
78733;DHT22;68056;52.530;5.454;2023-06-14T09:16:07;29.00;41.50
78733;DHT22;68056;52.530;5.454;2023-06-14T09:18:35;29.20;41.60
78733;DHT22;68056;52.530;5.454;2023-06-14T09:21:00;29.30;41.40
78733;DHT22;68056;52.530;5.454;2023-06-14T09:23:26;29.40;41.00
78733;DHT22;68056;52.530;5.454;2023-06-14T09:25:51;29.40;40.80
78733;DHT22;68056;52.530;5.454;2023-06-14T09:28:17;29.40;40.90
78733;DHT22;68056;52.530;5.454;2023-06-14T09:30:43;29.50;40.60
78733;DHT22;68056;52.530;5.454;2023-06-14T09:33:08;29.40;40.50
78733;DHT22;68056;52.530;5.454;2023-06-14T09:35:34;29.50;40.90
78733;DHT22;68056;52.530;5.454;2023-06-14T09:38:01;29.70;41.00
78733;DHT22;68056;52.530;5.454;2023-06-14T09:40:27;29.80;40.60
78733;DHT22;68056;52.530;5.454;2023-06-14T09:42:53;29.90;40.40
78733;DHT22;68056;52.530;5.454;2023-06-14T09:45:19;30.00;40.30
78733;DHT22;68056;52.530;5.454;2023-06-14T09:47:49;30.10;40.50
78733;DHT22;68056;52.530;5.454;2023-06-14T09:50:15;30.30;40.50
78733;DHT22;68056;52.530;5.454;2023-06-14T09:52:43;30.30;40.00
78733;DHT22;68056;52.530;5.454;2023-06-14T09:55:12;30.30;40.30
78733;DHT22;68056;52.530;5.454;2023-06-14T09:57:41;30.50;40.70
78733;DHT22;68056;52.530;5.454;2023-06-14T10:00:09;30.60;40.20
78733;DHT22;68056;52.530;5.454;2023-06-14T10:02:39;30.70;39.60
78733;DHT22;68056;52.530;5.454;2023-06-14T10:05:08;30.80;39.80
78733;DHT22;68056;52.530;5.454;2023-06-14T10:07:44;30.80;39.60
78733;DHT22;68056;52.530;5.454;2023-06-14T10:10:10;30.90;39.40
78733;DHT22;68056;52.530;5.454;2023-06-14T10:12:36;30.80;39.50
78733;DHT22;68056;52.530;5.454;2023-06-14T10:15:03;30.90;39.40
78733;DHT22;68056;52.530;5.454;2023-06-14T10:17:43;30.80;39.10
78733;DHT22;68056;52.530;5.454;2023-06-14T10:23:04;30.90;39.10
78733;DHT22;68056;52.530;5.454;2023-06-14T10:25:33;30.90;38.70
78733;DHT22;68056;52.530;5.454;2023-06-14T10:28:04;30.90;38.60
78733;DHT22;68056;52.530;5.454;2023-06-14T10:30:39;30.90;38.80
78733;DHT22;68056;52.530;5.454;2023-06-14T10:33:06;31.10;38.50
78733;DHT22;68056;52.530;5.454;2023-06-14T10:35:32;31.10;38.40
78733;DHT22;68056;52.530;5.454;2023-06-14T10:38:08;31.00;38.40
78733;DHT22;68056;52.530;5.454;2023-06-14T10:40:34;31.10;38.50
78733;DHT22;68056;52.530;5.454;2023-06-14T10:43:00;31.20;38.40
78733;DHT22;68056;52.530;5.454;2023-06-14T10:45:25;31.20;38.20
78733;DHT22;68056;52.530;5.454;2023-06-14T10:47:51;31.20;38.30
78733;DHT22;68056;52.530;5.454;2023-06-14T10:50:27;31.30;38.50
78733;DHT22;68056;52.530;5.454;2023-06-14T10:52:54;31.40;38.50
78733;DHT22;68056;52.530;5.454;2023-06-14T10:55:22;31.40;38.40
78733;DHT22;68056;52.530;5.454;2023-06-14T10:57:50;31.60;38.60
78733;DHT22;68056;52.530;5.454;2023-06-14T11:00:23;31.80;38.10
78733;DHT22;68056;52.530;5.454;2023-06-14T11:05:51;32.00;38.30
78733;DHT22;68056;52.530;5.454;2023-06-14T11:11:18;32.50;38.20
78733;DHT22;68056;52.530;5.454;2023-06-14T11:13:46;32.60;38.20
78733;DHT22;68056;52.530;5.454;2023-06-14T11:16:16;32.60;38.20
78733;DHT22;68056;52.530;5.454;2023-06-14T11:19:00;32.50;37.80
78733;DHT22;68056;52.530;5.454;2023-06-14T11:21:40;32.50;37.80
78733;DHT22;68056;52.530;5.454;2023-06-14T11:24:10;32.60;37.70
78733;DHT22;68056;52.530;5.454;2023-06-14T11:26:48;32.40;37.50
78733;DHT22;68056;52.530;5.454;2023-06-14T11:29:25;32.40;37.70
78733;DHT22;68056;52.530;5.454;2023-06-14T11:31:51;32.50;37.80
78733;DHT22;68056;52.530;5.454;2023-06-14T11:34:29;32.50;37.70
78733;DHT22;68056;52.530;5.454;2023-06-14T11:36:55;32.30;37.80
78733;DHT22;68056;52.530;5.454;2023-06-14T11:39:36;32.20;37.80
78733;DHT22;68056;52.530;5.454;2023-06-14T11:42:02;32.30;38.00
78733;DHT22;68056;52.530;5.454;2023-06-14T11:44:29;32.50;37.90
78733;DHT22;68056;52.530;5.454;2023-06-14T11:46:55;32.50;37.80
78733;DHT22;68056;52.530;5.454;2023-06-14T11:49:25;32.60;37.60
78733;DHT22;68056;52.530;5.454;2023-06-14T11:51:53;32.70;37.40
78733;DHT22;68056;52.530;5.454;2023-06-14T11:54:29;32.60;37.20
78733;DHT22;68056;52.530;5.454;2023-06-14T11:56:54;32.50;37.30
78733;DHT22;68056;52.530;5.454;2023-06-14T11:59:20;32.50;37.20
78733;DHT22;68056;52.530;5.454;2023-06-14T12:01:47;32.40;37.20
78733;DHT22;68056;52.530;5.454;2023-06-14T12:04:13;32.30;37.50
78733;DHT22;68056;52.530;5.454;2023-06-14T12:06:39;32.50;37.10
78733;DHT22;68056;52.530;5.454;2023-06-14T12:09:06;32.60;36.90
78733;DHT22;68056;52.530;5.454;2023-06-14T12:11:36;32.80;36.80
78733;DHT22;68056;52.530;5.454;2023-06-14T12:14:05;32.80;36.60
78733;DHT22;68056;52.530;5.454;2023-06-14T12:16:36;32.90;36.80
78733;DHT22;68056;52.530;5.454;2023-06-14T12:19:16;33.00;36.60
78733;DHT22;68056;52.530;5.454;2023-06-14T12:21:43;33.00;36.40
78733;DHT22;68056;52.530;5.454;2023-06-14T12:24:12;33.10;36.60
78733;DHT22;68056;52.530;5.454;2023-06-14T12:26:39;33.10;36.60
78733;DHT22;68056;52.530;5.454;2023-06-14T12:29:08;33.10;36.70
78733;DHT22;68056;52.530;5.454;2023-06-14T12:31:34;33.10;36.40
78733;DHT22;68056;52.530;5.454;2023-06-14T12:34:00;33.00;36.20
78733;DHT22;68056;52.530;5.454;2023-06-14T12:36:26;32.80;35.90
78733;DHT22;68056;52.530;5.454;2023-06-14T12:38:52;32.60;36.20
78733;DHT22;68056;52.530;5.454;2023-06-14T12:41:20;32.60;36.20
78733;DHT22;68056;52.530;5.454;2023-06-14T12:43:47;32.60;36.50
78733;DHT22;68056;52.530;5.454;2023-06-14T12:46:13;32.80;36.20
78733;DHT22;68056;52.530;5.454;2023-06-14T12:48:38;32.80;36.10
78733;DHT22;68056;52.530;5.454;2023-06-14T12:51:04;32.90;35.90
78733;DHT22;68056;52.530;5.454;2023-06-14T12:53:29;32.90;35.80
78733;DHT22;68056;52.530;5.454;2023-06-14T12:55:55;32.80;35.70
78733;DHT22;68056;52.530;5.454;2023-06-14T12:58:20;32.60;35.80
78733;DHT22;68056;52.530;5.454;2023-06-14T13:00:47;32.70;36.00
78733;DHT22;68056;52.530;5.454;2023-06-14T13:03:12;32.80;36.20
78733;DHT22;68056;52.530;5.454;2023-06-14T13:05:38;32.80;36.00
78733;DHT22;68056;52.530;5.454;2023-06-14T13:08:07;32.60;35.70
78733;DHT22;68056;52.530;5.454;2023-06-14T13:10:34;32.50;35.80
78733;DHT22;68056;52.530;5.454;2023-06-14T13:12:59;32.50;35.70
78733;DHT22;68056;52.530;5.454;2023-06-14T13:15:26;32.40;35.40
78733;DHT22;68056;52.530;5.454;2023-06-14T13:17:52;32.20;35.60
78733;DHT22;68056;52.530;5.454;2023-06-14T13:20:17;32.20;35.70
78733;DHT22;68056;52.530;5.454;2023-06-14T13:22:43;32.20;36.20
78733;DHT22;68056;52.530;5.454;2023-06-14T13:25:09;32.50;36.20
78733;DHT22;68056;52.530;5.454;2023-06-14T13:27:34;32.60;36.00
78733;DHT22;68056;52.530;5.454;2023-06-14T13:30:00;32.50;35.60
78733;DHT22;68056;52.530;5.454;2023-06-14T13:32:25;32.40;35.50
78733;DHT22;68056;52.530;5.454;2023-06-14T13:34:51;32.40;35.70
78733;DHT22;68056;52.530;5.454;2023-06-14T13:37:17;32.50;36.00
78733;DHT22;68056;52.530;5.454;2023-06-14T13:39:42;32.50;36.00
78733;DHT22;68056;52.530;5.454;2023-06-14T13:42:08;32.40;35.90
78733;DHT22;68056;52.530;5.454;2023-06-14T13:44:33;32.40;36.10
78733;DHT22;68056;52.530;5.454;2023-06-14T13:47:00;32.40;36.20
78733;DHT22;68056;52.530;5.454;2023-06-14T13:49:25;32.50;36.10
78733;DHT22;68056;52.530;5.454;2023-06-14T13:51:51;32.40;36.10
78733;DHT22;68056;52.530;5.454;2023-06-14T13:54:19;32.20;35.90
78733;DHT22;68056;52.530;5.454;2023-06-14T13:56:45;32.20;36.00
78733;DHT22;68056;52.530;5.454;2023-06-14T13:59:11;32.20;36.00
78733;DHT22;68056;52.530;5.454;2023-06-14T14:01:40;32.10;36.30
78733;DHT22;68056;52.530;5.454;2023-06-14T14:04:05;32.30;36.50
78733;DHT22;68056;52.530;5.454;2023-06-14T14:06:31;32.40;36.10
78733;DHT22;68056;52.530;5.454;2023-06-14T14:08:57;32.40;36.00
78733;DHT22;68056;52.530;5.454;2023-06-14T14:11:23;32.40;36.00
78733;DHT22;68056;52.530;5.454;2023-06-14T14:13:49;32.40;36.00
78733;DHT22;68056;52.530;5.454;2023-06-14T14:16:14;32.30;36.10
78733;DHT22;68056;52.530;5.454;2023-06-14T14:18:40;32.40;35.90
78733;DHT22;68056;52.530;5.454;2023-06-14T14:21:06;32.20;35.80
78733;DHT22;68056;52.530;5.454;2023-06-14T14:23:31;32.10;36.10
78733;DHT22;68056;52.530;5.454;2023-06-14T14:25:57;32.20;35.90
78733;DHT22;68056;52.530;5.454;2023-06-14T14:28:23;32.00;35.90
78733;DHT22;68056;52.530;5.454;2023-06-14T14:30:48;32.00;35.90
78733;DHT22;68056;52.530;5.454;2023-06-14T14:33:15;32.00;35.80
78733;DHT22;68056;52.530;5.454;2023-06-14T14:35:44;32.10;35.70
78733;DHT22;68056;52.530;5.454;2023-06-14T14:38:13;32.20;35.80
78733;DHT22;68056;52.530;5.454;2023-06-14T14:40:39;32.00;36.20
78733;DHT22;68056;52.530;5.454;2023-06-14T14:43:06;32.00;36.30
78733;DHT22;68056;52.530;5.454;2023-06-14T14:45:31;32.00;36.00
78733;DHT22;68056;52.530;5.454;2023-06-14T14:47:57;31.90;36.30
78733;DHT22;68056;52.530;5.454;2023-06-14T14:50:23;31.90;36.20
78733;DHT22;68056;52.530;5.454;2023-06-14T14:52:48;31.80;36.30
78733;DHT22;68056;52.530;5.454;2023-06-14T14:55:14;31.70;36.00
78733;DHT22;68056;52.530;5.454;2023-06-14T14:57:39;31.60;36.20
78733;DHT22;68056;52.530;5.454;2023-06-14T15:00:07;31.50;36.20
78733;DHT22;68056;52.530;5.454;2023-06-14T15:02:33;31.40;36.20
78733;DHT22;68056;52.530;5.454;2023-06-14T15:04:59;31.30;36.00
78733;DHT22;68056;52.530;5.454;2023-06-14T15:07:27;31.20;36.10
78733;DHT22;68056;52.530;5.454;2023-06-14T15:09:53;30.90;36.10
78733;DHT22;68056;52.530;5.454;2023-06-14T15:12:19;30.70;36.20
78733;DHT22;68056;52.530;5.454;2023-06-14T15:14:45;30.60;36.00
78733;DHT22;68056;52.530;5.454;2023-06-14T15:17:11;30.50;36.10
78733;DHT22;68056;52.530;5.454;2023-06-14T15:19:37;30.50;36.40
78733;DHT22;68056;52.530;5.454;2023-06-14T15:22:02;30.60;36.40
78733;DHT22;68056;52.530;5.454;2023-06-14T15:24:28;30.50;36.60
78733;DHT22;68056;52.530;5.454;2023-06-14T15:26:53;30.50;36.50
78733;DHT22;68056;52.530;5.454;2023-06-14T15:29:19;30.50;36.70
78733;DHT22;68056;52.530;5.454;2023-06-14T15:31:44;30.50;36.60
78733;DHT22;68056;52.530;5.454;2023-06-14T15:34:10;30.30;36.80
78733;DHT22;68056;52.530;5.454;2023-06-14T15:36:36;30.30;36.70
78733;DHT22;68056;52.530;5.454;2023-06-14T15:39:01;30.10;36.70
78733;DHT22;68056;52.530;5.454;2023-06-14T15:41:27;30.00;36.80
78733;DHT22;68056;52.530;5.454;2023-06-14T15:43:52;29.90;36.80